Time;durP1;ratioP1;P1;durP2;ratioP2;P2;SDS_P1;SDS_P2;PMS_P1;PMS_P2;Temp;Humidity;BMP_temperature;BMP_pressure;BME280_temperature;BME280_humidity;BME280_pressure;Samples;Min_cycle;Max_cycle;Signal;HPM_P1;HPM_P2
2022/02/02 00:01:22;;;;;;;0.30;0.30;;;18.80;99.90;;;;;;5038219;28;20075;-62
2022/02/02 00:03:53;;;;;;;0.30;0.30;;;18.80;99.90;;;;;;5042346;28;20045;-62
2022/02/02 00:06:28;;;;;;;0.40;0.40;;;18.80;99.90;;;;;;5040864;28;20048;-61
2022/02/02 00:09:00;;;;;;;0.40;0.40;;;18.80;99.90;;;;;;5047888;28;20045;-63
2022/02/02 00:12:18;;;;;;;0.30;0.30;;;18.70;99.90;;;;;;5034485;28;20040;-63
2022/02/02 00:22:12;;;;;;;0.35;0.35;;;18.70;99.90;;;;;;5048402;28;20048;-63
2022/02/02 00:25:01;;;;;;;0.30;0.30;;;18.70;99.90;;;;;;5056774;28;20049;-63
2022/02/02 00:27:29;;;;;;;0.35;0.35;;;18.70;99.90;;;;;;5050024;28;20053;-62
2022/02/02 00:30:02;;;;;;;0.40;0.40;;;18.70;99.90;;;;;;5047843;28;20405;-63
2022/02/02 00:35:20;;;;;;;0.40;0.40;;;18.70;99.90;;;;;;5033077;28;20041;-61
2022/02/02 00:37:47;;;;;;;0.40;0.40;;;18.70;99.90;;;;;;5034039;28;20412;-61
2022/02/02 00:40:15;;;;;;;0.30;0.30;;;18.70;99.90;;;;;;5033753;28;20409;-63
2022/02/02 00:42:45;;;;;;;0.40;0.40;;;18.70;99.90;;;;;;5035267;28;20511;-58
2022/02/02 00:45:12;;;;;;;0.40;0.40;;;18.70;99.90;;;;;;5037105;28;20044;-60
2022/02/02 00:47:40;;;;;;;0.38;0.38;;;18.70;99.90;;;;;;5042867;28;20048;-61
2022/02/02 00:50:08;;;;;;;0.30;0.30;;;18.60;99.90;;;;;;5035260;28;20515;-61
2022/02/02 00:52:36;;;;;;;;;;;18.70;99.90;;;;;;5046661;28;20049;-61
2022/02/02 00:55:03;;;;;;;0.30;0.30;;;18.70;99.90;;;;;;5032248;28;19996;-61
2022/02/02 00:57:30;;;;;;;0.30;0.30;;;18.60;99.90;;;;;;5035957;28;20489;-62
2022/02/02 00:59:58;;;;;;;0.30;0.30;;;18.60;99.90;;;;;;5029176;28;20515;-61
2022/02/02 01:02:26;;;;;;;0.30;0.30;;;18.60;99.90;;;;;;5054982;28;20055;-62
2022/02/02 01:04:55;;;;;;;0.30;0.30;;;18.60;99.90;;;;;;5043211;28;20045;-63
2022/02/02 01:07:43;;;;;;;0.30;0.30;;;18.50;99.90;;;;;;5051002;28;20048;-62
2022/02/02 01:10:23;;;;;;;0.40;0.40;;;18.50;99.90;;;;;;5036754;28;20037;-63
2022/02/02 01:18:34;;;;;;;0.63;0.63;;;18.50;99.90;;;;;;5031757;28;20048;-63
2022/02/02 01:21:16;;;;;;;0.30;0.30;;;18.50;99.90;;;;;;5044389;28;20044;-62
2022/02/02 01:29:15;;;;;;;0.40;0.40;;;18.60;99.90;;;;;;5034894;28;20044;-61
2022/02/02 01:31:42;;;;;;;0.32;0.32;;;18.60;99.90;;;;;;5041431;28;20045;-63
2022/02/02 01:34:10;;;;;;;0.38;0.38;;;18.60;99.90;;;;;;5035383;28;20416;-62
2022/02/02 01:36:39;;;;;;;1.25;1.05;;;18.50;99.90;;;;;;5041634;28;20512;-61
2022/02/02 01:39:11;;;;;;;0.85;0.82;;;18.50;99.90;;;;;;5046041;28;20049;-61
2022/02/02 01:41:42;;;;;;;0.38;0.38;;;18.50;99.90;;;;;;5036948;28;20049;-65
2022/02/02 01:46:54;;;;;;;0.30;0.30;;;18.50;99.90;;;;;;5039374;28;20405;-65
2022/02/02 01:50:06;;;;;;;0.40;0.40;;;18.40;99.90;;;;;;5042031;28;20072;-64
2022/02/02 01:54:58;;;;;;;0.60;0.60;;;18.40;99.90;;;;;;5027602;28;20069;-62
2022/02/02 01:59:54;;;;;;;1.45;0.55;;;18.40;99.90;;;;;;5037942;28;20060;-62
2022/02/02 02:02:21;;;;;;;36.97;1.55;;;18.40;99.90;;;;;;5045374;28;20051;-62
2022/02/02 02:04:49;;;;;;;0.40;0.40;;;18.40;99.90;;;;;;5032942;28;20049;-63
2022/02/02 02:07:16;;;;;;;;;;;18.40;99.90;;;;;;5038619;28;20056;-62
2022/02/02 02:09:44;;;;;;;0.30;0.30;;;18.40;99.90;;;;;;5033382;28;20300;-61
2022/02/02 02:12:11;;;;;;;0.30;0.30;;;18.40;99.90;;;;;;5027953;28;20049;-61
2022/02/02 02:14:59;;;;;;;1.17;1.02;;;18.40;99.90;;;;;;5027024;28;20076;-62
2022/02/02 02:17:26;;;;;;;;;;;18.40;99.90;;;;;;5040157;28;20064;-63
2022/02/02 02:19:53;;;;;;;0.38;0.38;;;18.40;99.90;;;;;;5032352;28;20568;-62
2022/02/02 02:22:29;;;;;;;0.40;0.40;;;18.40;99.90;;;;;;5036527;28;20060;-62
2022/02/02 02:24:56;;;;;;;0.30;0.30;;;18.40;99.90;;;;;;5032435;28;20056;-60
2022/02/02 02:27:25;;;;;;;0.30;0.30;;;18.40;99.90;;;;;;5032818;28;20050;-62
2022/02/02 02:56:25;;;;;;;0.40;0.40;;;18.40;99.90;;;;;;5029042;28;20053;-63
2022/02/02 02:59:08;;;;;;;0.38;0.38;;;18.30;99.90;;;;;;5029440;28;20441;-63
2022/02/02 03:32:43;;;;;;;0.45;0.45;;;18.20;99.90;;;;;;5039436;28;20041;-62
2022/02/02 03:52:28;;;;;;;0.90;0.73;;;18.20;99.90;;;;;;5040547;28;20043;-63
2022/02/02 03:54:29;;;;;;;;;;;18.20;99.90;;;;;;5039386;28;20440;-63
2022/02/02 04:00:18;;;;;;;0.82;0.82;;;18.20;99.90;;;;;;5038494;28;20044;-62
2022/02/02 04:06:05;;;;;;;0.30;0.30;;;18.20;99.90;;;;;;5036513;28;20056;-61
2022/02/02 04:08:28;;;;;;;0.30;0.30;;;18.20;99.90;;;;;;5043173;28;20056;-63
2022/02/02 04:10:57;;;;;;;0.50;0.50;;;18.10;99.90;;;;;;5036579;28;20046;-64
2022/02/02 04:14:13;;;;;;;0.40;0.40;;;18.20;99.90;;;;;;5046841;28;20053;-62
2022/02/02 04:17:11;;;;;;;0.40;0.40;;;18.20;99.90;;;;;;5045296;28;20235;-59
2022/02/02 04:58:29;;;;;;;6.57;0.70;;;17.60;99.90;;;;;;5048858;28;20058;-62
2022/02/02 05:04:05;;;;;;;16.90;2.85;;;17.40;99.90;;;;;;5068307;28;20513;-60
2022/02/02 05:06:43;;;;;;;1.30;1.20;;;17.80;99.90;;;;;;5039065;28;20064;-60
2022/02/02 05:51:51;;;;;;;1.58;1.33;;;20.90;99.90;;;;;;5038391;28;20503;-61
2022/02/02 05:54:19;;;;;;;13.25;1.50;;;21.00;99.90;;;;;;5038715;28;20586;-61
2022/02/02 05:56:52;;;;;;;2.17;1.95;;;21.20;99.90;;;;;;5040604;28;20052;-60
2022/02/02 05:59:22;;;;;;;1.77;1.20;;;21.50;99.90;;;;;;5032807;28;20133;-60
2022/02/02 06:01:53;;;;;;;2.47;1.50;;;21.50;99.90;;;;;;5042492;28;20048;-59
2022/02/02 06:04:27;;;;;;;0.60;0.60;;;21.70;99.90;;;;;;5055611;28;20054;-63
2022/02/02 06:07:00;;;;;;;1.02;0.95;;;21.50;99.90;;;;;;5040391;28;20037;-64
2022/02/02 06:09:33;;;;;;;1.63;1.15;;;21.30;99.90;;;;;;5033536;28;20060;-60
2022/02/02 06:12:01;;;;;;;0.65;0.65;;;21.20;99.90;;;;;;5045875;28;20045;-61
2022/02/02 06:14:30;;;;;;;0.52;0.52;;;21.20;99.90;;;;;;5039196;28;20071;-62
2022/02/02 06:17:02;;;;;;;1.55;1.45;;;21.10;99.90;;;;;;5039377;28;20465;-58
2022/02/02 06:19:37;;;;;;;0.95;0.95;;;21.10;99.90;;;;;;5037158;28;20060;-59
2022/02/02 06:22:10;;;;;;;2.58;1.77;;;21.10;99.90;;;;;;5036193;28;20055;-58
2022/02/02 06:24:48;;;;;;;7.07;0.55;;;21.00;99.90;;;;;;5041286;28;20045;-58
2022/02/02 06:27:26;;;;;;;0.43;0.43;;;21.00;99.90;;;;;;5047936;28;20049;-61
2022/02/02 06:30:06;;;;;;;0.55;0.55;;;21.00;99.90;;;;;;5044753;28;20053;-60
2022/02/02 06:32:40;;;;;;;0.40;0.40;;;21.00;99.90;;;;;;5042634;28;20049;-57
2022/02/02 06:35:11;;;;;;;0.63;0.63;;;20.90;99.90;;;;;;5046554;28;20053;-62
2022/02/02 06:37:39;;;;;;;0.65;0.65;;;20.90;99.90;;;;;;5040406;28;20049;-62
2022/02/02 06:40:08;;;;;;;2.10;1.17;;;20.90;99.90;;;;;;5048116;28;20061;-59
2022/02/02 06:42:37;;;;;;;1.70;1.00;;;20.80;99.90;;;;;;5042736;28;20064;-62
2022/02/02 06:45:06;;;;;;;0.40;0.40;;;20.90;99.90;;;;;;5043456;28;20045;-62
2022/02/02 06:47:35;;;;;;;1.10;0.93;;;20.80;99.90;;;;;;5036857;28;20049;-59
2022/02/02 06:50:16;;;;;;;5.63;1.33;;;20.80;99.90;;;;;;5043010;28;20247;-60
2022/02/02 06:52:50;;;;;;;2.10;1.67;;;20.80;99.90;;;;;;5043132;28;20079;-60
2022/02/02 06:55:30;;;;;;;0.43;0.43;;;20.70;99.90;;;;;;5041273;28;20072;-58
2022/02/02 06:58:22;;;;;;;0.43;0.43;;;20.70;99.90;;;;;;5040895;28;20060;-59
2022/02/02 07:01:03;;;;;;;1.23;1.05;;;20.60;99.90;;;;;;5040341;28;20056;-59
2022/02/02 07:12:35;;;;;;;2.42;1.98;;;20.60;99.90;;;;;;5004552;28;20054;-64
2022/02/02 07:15:20;;;;;;;3.83;2.05;;;20.50;99.90;;;;;;5021259;28;20045;-63
2022/02/02 07:20:42;;;;;;;1.30;1.20;;;20.50;99.90;;;;;;5009371;28;20057;-63
2022/02/02 07:34:09;;;;;;;1.70;1.02;;;20.90;99.90;;;;;;4989521;28;20065;-62
2022/02/02 07:36:42;;;;;;;5.93;1.60;;;21.10;99.90;;;;;;5012494;28;20436;-61
2022/02/02 07:39:12;;;;;;;3.53;2.03;;;21.10;99.90;;;;;;5049423;28;20044;-62
2022/02/02 07:41:48;;;;;;;2.13;1.30;;;21.20;99.90;;;;;;5040415;28;20440;-63
2022/02/02 07:44:20;;;;;;;0.40;0.40;;;21.20;99.90;;;;;;5046526;28;20069;-62
2022/02/02 07:46:53;;;;;;;8.98;1.42;;;21.30;99.90;;;;;;5042947;28;20067;-63
2022/02/02 07:49:33;;;;;;;0.68;0.68;;;21.30;99.90;;;;;;5044934;28;20470;-63
2022/02/02 07:52:01;;;;;;;0.60;0.60;;;21.30;99.90;;;;;;5047469;28;20343;-62
2022/02/02 07:54:34;;;;;;;;;;;21.30;99.90;;;;;;5056326;28;20057;-64
2022/02/02 07:57:25;;;;;;;0.60;0.60;;;21.20;99.90;;;;;;5054543;28;19950;-63
2022/02/02 07:59:58;;;;;;;4.88;1.15;;;21.30;99.90;;;;;;5055113;28;20059;-62
2022/02/02 08:05:02;;;;;;;1.98;0.88;;;21.10;99.90;;;;;;5054104;28;20049;-63
2022/02/02 08:07:37;;;;;;;0.75;0.75;;;21.10;99.90;;;;;;5049244;28;20048;-63
2022/02/02 08:12:42;;;;;;;0.50;0.50;;;21.00;99.90;;;;;;5047144;28;20052;-63
2022/02/02 08:15:11;;;;;;;0.40;0.40;;;21.00;99.90;;;;;;5042948;28;20056;-63
2022/02/02 08:17:40;;;;;;;0.63;0.63;;;20.90;99.90;;;;;;5058124;28;20052;-66
2022/02/02 08:20:07;;;;;;;3.50;1.65;;;20.90;99.90;;;;;;5052052;28;20405;-61
2022/02/02 08:22:38;;;;;;;2.25;1.75;;;20.90;99.90;;;;;;5047765;28;20420;-62
2022/02/02 08:25:08;;;;;;;0.98;0.85;;;20.90;99.90;;;;;;5041795;28;20056;-62
2022/02/02 08:27:41;;;;;;;2.13;1.33;;;20.80;99.90;;;;;;5042693;28;20049;-61
2022/02/02 08:30:15;;;;;;;2.05;1.30;;;20.90;99.90;;;;;;5051862;28;20044;-62
2022/02/02 08:32:48;;;;;;;1.55;1.33;;;20.80;99.90;;;;;;5045036;28;20045;-61
2022/02/02 08:35:19;;;;;;;0.85;0.85;;;20.80;99.90;;;;;;5049605;28;20053;-61
2022/02/02 08:37:51;;;;;;;11.13;3.28;;;20.80;99.90;;;;;;5042520;28;20071;-64
2022/02/02 08:42:46;;;;;;;3.35;2.05;;;20.70;99.90;;;;;;5045234;28;20096;-62
2022/02/02 08:45:24;;;;;;;1.90;1.50;;;20.70;99.90;;;;;;5041753;28;20044;-63
2022/02/02 08:48:02;;;;;;;3.80;2.55;;;20.70;99.90;;;;;;5042087;28;20439;-63
2022/02/02 08:50:40;;;;;;;;;;;20.60;99.90;;;;;;5043260;28;20386;-62
2022/02/02 08:53:29;;;;;;;0.73;0.73;;;20.80;99.90;;;;;;5038989;28;19951;-62
2022/02/02 09:01:08;;;;;;;2.47;2.25;;;21.10;99.90;;;;;;5045585;28;20049;-63
2022/02/02 09:06:23;;;;;;;7.28;2.95;;;21.30;99.90;;;;;;5042187;28;20045;-64
2022/02/02 09:09:00;;;;;;;1.67;1.58;;;21.40;99.90;;;;;;5039873;28;20075;-63
2022/02/02 09:25:21;;;;;;;3.65;1.77;;;21.40;99.90;;;;;;5040582;28;20049;-62
2022/02/02 09:42:53;;;;;;;21.98;2.92;;;21.20;99.90;;;;;;5041812;28;20067;-61
2022/02/02 09:45:22;;;;;;;0.95;0.95;;;21.20;99.90;;;;;;5044575;28;20710;-65
2022/02/02 09:48:00;;;;;;;2.25;1.65;;;21.20;99.90;;;;;;5036820;28;20075;-62
2022/02/02 09:50:34;;;;;;;0.68;0.68;;;21.10;99.90;;;;;;5043435;28;20559;-59
2022/02/02 09:53:05;;;;;;;1.88;1.38;;;21.10;99.90;;;;;;5043504;28;20052;-60
2022/02/02 10:07:11;;;;;;;2.72;2.22;;;21.00;99.90;;;;;;5041417;28;20056;-64
2022/02/02 10:09:59;;;;;;;4.13;1.80;;;20.90;99.90;;;;;;5042038;28;20243;-63
2022/02/02 10:15:23;;;;;;;1.85;1.50;;;20.90;99.90;;;;;;5042829;28;20037;-62
2022/02/02 10:18:02;;;;;;;3.22;1.50;;;20.80;99.90;;;;;;5046266;28;20044;-61
2022/02/02 10:20:30;;;;;;;2.65;0.73;;;20.80;99.90;;;;;;5043733;28;20044;-60
2022/02/02 10:22:59;;;;;;;3.35;2.33;;;20.80;99.90;;;;;;5040019;28;20246;-62
2022/02/02 10:25:31;;;;;;;2.25;1.70;;;20.70;99.90;;;;;;5044099;28;20056;-62
2022/02/02 10:28:13;;;;;;;1.38;1.23;;;20.70;99.90;;;;;;5045767;28;20052;-64
2022/02/02 10:30:45;;;;;;;5.82;2.78;;;20.80;99.90;;;;;;5046674;28;20047;-64
2022/02/02 10:33:40;;;;;;;4.00;2.28;;;20.80;99.90;;;;;;5038392;28;20068;-64
2022/02/02 10:36:20;;;;;;;0.63;0.63;;;20.90;99.90;;;;;;5043854;28;20058;-62
2022/02/02 10:39:09;;;;;;;1.45;1.15;;;21.00;99.90;;;;;;5044967;28;20045;-63
2022/02/02 10:41:58;;;;;;;0.55;0.55;;;21.10;99.90;;;;;;5051395;28;20063;-62
2022/02/02 10:44:34;;;;;;;0.43;0.43;;;21.20;99.90;;;;;;5049251;28;20448;-62
2022/02/02 10:47:21;;;;;;;2.17;1.57;;;21.20;99.90;;;;;;5045987;28;20045;-62
2022/02/02 10:50:13;;;;;;;0.65;0.65;;;21.30;99.90;;;;;;5047723;28;20411;-64
2022/02/02 10:53:00;;;;;;;0.77;0.77;;;21.40;99.90;;;;;;5043143;28;20041;-61
2022/02/02 10:55:55;;;;;;;0.50;0.50;;;21.40;99.90;;;;;;5046361;28;20060;-65
2022/02/02 11:08:52;;;;;;;1.17;0.93;;;21.40;99.90;;;;;;5045656;28;20060;-62
2022/02/02 11:11:21;;;;;;;1.60;1.27;;;21.40;99.90;;;;;;5048007;28;20049;-60
2022/02/02 11:13:57;;;;;;;2.30;1.58;;;21.30;99.90;;;;;;5044962;28;20041;-64
2022/02/02 11:16:30;;;;;;;1.30;1.23;;;21.20;99.90;;;;;;5043450;28;20056;-65
2022/02/02 11:19:03;;;;;;;1.27;1.15;;;21.20;99.90;;;;;;5043814;28;20428;-63
2022/02/02 11:21:33;;;;;;;5.55;1.38;;;21.20;99.90;;;;;;5040667;28;20049;-61
2022/02/02 11:24:17;;;;;;;16.88;2.65;;;21.10;99.90;;;;;;5045063;28;20528;-63
2022/02/02 11:26:49;;;;;;;26.08;4.78;;;21.10;99.90;;;;;;5041880;28;20053;-62
2022/02/02 11:29:37;;;;;;;0.98;0.80;;;21.10;99.90;;;;;;5045952;28;20091;-63
2022/02/02 11:32:08;;;;;;;1.15;1.05;;;21.00;99.90;;;;;;5042798;28;20056;-62
2022/02/02 11:34:36;;;;;;;3.40;2.08;;;21.00;99.90;;;;;;5045454;28;20041;-62
2022/02/02 11:37:05;;;;;;;;;;;21.00;99.90;;;;;;5044673;28;20041;-59
2022/02/02 11:39:42;;;;;;;1.52;1.42;;;20.90;99.90;;;;;;5045837;28;20890;-62
2022/02/02 11:42:59;;;;;;;4.22;1.73;;;20.90;99.90;;;;;;5042394;28;20048;-61
2022/02/02 11:45:35;;;;;;;0.40;0.40;;;20.90;99.90;;;;;;5045069;28;20449;-64
2022/02/02 11:48:09;;;;;;;5.28;3.03;;;20.80;99.90;;;;;;5042053;28;20053;-62
2022/02/02 11:50:48;;;;;;;2.40;1.75;;;20.80;99.90;;;;;;5045032;28;20052;-62
2022/02/02 11:53:48;;;;;;;0.40;0.40;;;20.80;99.90;;;;;;5042311;28;20302;-63
2022/02/02 11:56:18;;;;;;;0.60;0.60;;;20.80;99.90;;;;;;5043939;28;20469;-63
2022/02/02 11:58:46;;;;;;;0.82;0.82;;;20.80;99.90;;;;;;5045466;28;20045;-62
2022/02/02 12:01:40;;;;;;;1.30;1.13;;;20.80;99.90;;;;;;5040027;28;20072;-63
2022/02/02 12:04:37;;;;;;;0.60;0.60;;;20.90;99.90;;;;;;5041328;28;20049;-62
2022/02/02 12:07:15;;;;;;;0.52;0.52;;;20.90;99.90;;;;;;5041344;28;20057;-62
2022/02/02 12:09:58;;;;;;;3.05;1.60;;;21.00;99.90;;;;;;5045024;28;20049;-63
2022/02/02 12:49:39;;;;;;;0.50;0.50;;;21.20;99.90;;;;;;5049283;28;20041;-63
2022/02/02 12:57:09;;;;;;;1.10;1.00;;;21.20;99.90;;;;;;5041513;28;20505;-64
2022/02/02 13:02:16;;;;;;;;;;;21.00;99.90;;;;;;5050493;28;20053;-60
2022/02/02 13:04:50;;;;;;;4.28;1.70;;;20.90;99.90;;;;;;5052880;28;19921;-61
2022/02/02 13:07:20;;;;;;;0.70;0.70;;;20.80;99.90;;;;;;5052378;28;20041;-64
2022/02/02 13:09:51;;;;;;;1.95;1.55;;;20.80;99.90;;;;;;5047529;28;21424;-64
2022/02/02 13:12:20;;;;;;;0.90;0.88;;;20.90;99.90;;;;;;5044072;28;20056;-63
2022/02/02 13:17:57;;;;;;;1.23;0.88;;;21.00;99.90;;;;;;5046440;28;20060;-61
2022/02/02 13:20:45;;;;;;;1.52;1.42;;;21.00;99.90;;;;;;5042591;28;20142;-66
2022/02/02 13:26:02;;;;;;;0.75;0.75;;;21.10;99.90;;;;;;5042837;28;20060;-66
2022/02/02 13:28:45;;;;;;;2.22;1.83;;;21.20;99.90;;;;;;5053914;28;20053;-64
2022/02/02 13:34:31;;;;;;;9.13;2.83;;;21.30;99.90;;;;;;5043654;28;20508;-63
2022/02/02 13:37:36;;;;;;;1.17;1.08;;;21.30;99.90;;;;;;5047925;28;20083;-65
2022/02/02 13:46:20;;;;;;;2.72;1.98;;;21.40;99.90;;;;;;5043893;28;20060;-61
2022/02/02 13:51:28;;;;;;;0.55;0.55;;;21.40;99.90;;;;;;5043224;28;20052;-59
2022/02/02 14:02:13;;;;;;;0.98;0.93;;;21.30;99.90;;;;;;5041382;28;20057;-59
2022/02/02 14:26:11;;;;;;;0.40;0.40;;;21.20;99.90;;;;;;5076842;28;20543;-63
2022/02/02 14:31:26;;;;;;;3.30;2.85;;;21.20;99.90;;;;;;5055606;28;21273;-58
2022/02/02 14:33:59;;;;;;;2.05;1.33;;;21.20;99.90;;;;;;5048917;28;20369;-61
2022/02/02 14:36:31;;;;;;;0.50;0.50;;;21.20;99.90;;;;;;5040899;28;20049;-57
2022/02/02 14:39:12;;;;;;;1.30;1.02;;;21.20;99.90;;;;;;5040322;28;20041;-57
2022/02/02 14:47:34;;;;;;;1.38;1.23;;;21.10;99.90;;;;;;5035342;28;20305;-56
2022/02/02 14:50:12;;;;;;;6.43;2.75;;;21.10;99.90;;;;;;5040488;28;20056;-56
2022/02/02 14:56:08;;;;;;;1.02;0.88;;;21.00;99.90;;;;;;5038183;28;20052;-59
2022/02/02 15:09:16;;;;;;;1.45;1.02;;;21.10;99.90;;;;;;5043625;28;20416;-55
2022/02/02 15:28:02;;;;;;;0.75;0.75;;;21.50;99.90;;;;;;5040174;28;20040;-55
2022/02/02 15:30:50;;;;;;;6.22;1.92;;;21.60;99.90;;;;;;5048969;28;20052;-54
2022/02/02 15:33:22;;;;;;;0.68;0.68;;;21.50;99.90;;;;;;5043413;28;20056;-58
2022/02/02 15:36:01;;;;;;;0.40;0.40;;;21.50;99.90;;;;;;5042153;28;20056;-58
2022/02/02 15:38:29;;;;;;;0.45;0.45;;;21.50;99.90;;;;;;5046621;28;20044;-58
2022/02/02 15:41:03;;;;;;;0.70;0.70;;;21.50;99.90;;;;;;5039020;28;20045;-61
2022/02/02 15:43:48;;;;;;;1.63;1.20;;;21.50;99.90;;;;;;5042946;28;20041;-55
2022/02/02 16:03:01;;;;;;;1.13;0.65;;;21.40;99.90;;;;;;5045929;28;20048;-61
2022/02/02 16:05:27;;;;;;;2.70;1.38;;;21.40;99.90;;;;;;5050243;28;20386;-61
2022/02/02 16:07:56;;;;;;;1.08;1.02;;;21.40;99.90;;;;;;5039588;28;20053;-59
2022/02/02 16:10:39;;;;;;;0.50;0.50;;;21.40;99.90;;;;;;5043259;28;20045;-63
2022/02/02 16:13:15;;;;;;;2.40;1.50;;;21.40;99.90;;;;;;5042665;28;20607;-60
2022/02/02 16:15:42;;;;;;;0.60;0.60;;;21.40;99.90;;;;;;5043586;28;20435;-61
2022/02/02 16:37:29;;;;;;;0.40;0.40;;;21.30;99.90;;;;;;5041978;28;20053;-62
2022/02/02 16:39:59;;;;;;;1.42;1.33;;;21.30;99.90;;;;;;5037054;28;20484;-62
2022/02/02 16:45:14;;;;;;;0.70;0.70;;;21.30;99.90;;;;;;5042994;28;20123;-59
2022/02/02 16:47:42;;;;;;;2.17;1.38;;;21.20;99.90;;;;;;5045389;28;20404;-60
2022/02/02 16:50:21;;;;;;;0.60;0.60;;;21.20;99.90;;;;;;5039386;28;20413;-59
2022/02/02 16:52:51;;;;;;;0.40;0.40;;;21.10;99.90;;;;;;5038159;28;20231;-60
2022/02/02 16:55:48;;;;;;;0.77;0.77;;;21.10;99.90;;;;;;5032629;28;20057;-59
2022/02/02 17:27:43;;;;;;;1.23;1.13;;;20.00;99.90;;;;;;5041306;28;20065;-63
2022/02/02 17:31:29;;;;;;;0.55;0.55;;;19.40;99.70;;;;;;5050349;28;19928;-62
2022/02/02 17:34:14;;;;;;;1.75;1.40;;;19.20;99.90;;;;;;5042812;28;20045;-60
2022/02/02 17:36:48;;;;;;;1.42;1.38;;;19.20;99.40;;;;;;5042437;28;20045;-57
2022/02/02 17:39:30;;;;;;;0.75;0.63;;;19.50;98.60;;;;;;5048191;28;20083;-61
2022/02/02 18:20:48;;;;;;;0.68;0.68;;;20.50;99.90;;;;;;5028941;28;20064;-60
2022/02/02 18:23:30;;;;;;;0.82;0.80;;;20.50;99.90;;;;;;5039191;28;20056;-58
2022/02/02 18:26:15;;;;;;;0.60;0.60;;;20.50;99.90;;;;;;5038578;28;20060;-60
2022/02/02 18:28:57;;;;;;;1.10;0.68;;;20.50;99.90;;;;;;5057441;28;20504;-60
2022/02/02 18:37:34;;;;;;;1.63;1.35;;;20.40;99.90;;;;;;5041594;28;20041;-62
2022/02/02 18:45:34;;;;;;;0.63;0.63;;;20.50;99.90;;;;;;5064640;28;20053;-63
2022/02/02 18:48:24;;;;;;;5.50;1.38;;;20.40;99.90;;;;;;5053156;28;20054;-62
2022/02/02 18:56:22;;;;;;;0.50;0.50;;;20.40;99.90;;;;;;5050219;28;20458;-62
2022/02/02 18:59:04;;;;;;;1.58;1.00;;;20.40;99.90;;;;;;5037226;28;20084;-60
2022/02/02 19:01:42;;;;;;;0.77;0.73;;;20.40;99.90;;;;;;5037499;28;20045;-60
2022/02/02 19:31:58;;;;;;;0.68;0.68;;;20.20;99.90;;;;;;5047632;28;20057;-61
2022/02/02 19:40:12;;;;;;;1.15;0.93;;;20.20;99.90;;;;;;5048591;28;20083;-61
2022/02/02 20:12:30;;;;;;;2.45;1.38;;;20.10;99.90;;;;;;5035401;28;20414;-61
2022/02/02 20:14:58;;;;;;;0.52;0.52;;;20.10;99.90;;;;;;5039319;28;20049;-62
2022/02/02 20:17:27;;;;;;;0.40;0.40;;;20.10;99.90;;;;;;5053341;28;20041;-64
2022/02/02 20:20:10;;;;;;;2.13;0.75;;;20.10;99.90;;;;;;5046621;28;20128;-60
2022/02/02 20:22:37;;;;;;;1.85;1.08;;;20.00;99.90;;;;;;5041012;28;20053;-63
2022/02/02 20:25:05;;;;;;;1.83;1.50;;;20.00;99.90;;;;;;5055143;28;20048;-62
2022/02/02 20:27:33;;;;;;;;;;;20.00;99.90;;;;;;5046851;28;20044;-61
2022/02/02 20:30:03;;;;;;;0.50;0.50;;;20.00;99.90;;;;;;5039971;28;19931;-62
2022/02/02 20:32:30;;;;;;;0.80;0.80;;;20.00;99.90;;;;;;5053847;28;20052;-61
2022/02/02 20:34:58;;;;;;;0.63;0.63;;;20.00;99.90;;;;;;5050948;28;20052;-62
2022/02/02 20:37:28;;;;;;;0.50;0.50;;;20.10;99.90;;;;;;5043216;28;20048;-60
2022/02/02 20:40:05;;;;;;;2.35;1.77;;;20.00;99.90;;;;;;5037567;28;20052;-61
2022/02/02 20:42:39;;;;;;;0.68;0.68;;;20.00;99.90;;;;;;5032659;28;20231;-61
2022/02/02 20:45:45;;;;;;;0.40;0.40;;;19.90;99.90;;;;;;5044428;28;20056;-62
2022/02/02 21:10:16;;;;;;;0.40;0.40;;;19.70;99.90;;;;;;5032666;28;20524;-62
2022/02/02 21:15:29;;;;;;;0.50;0.50;;;19.70;99.90;;;;;;5047174;28;20049;-62
2022/02/02 21:18:04;;;;;;;0.68;0.68;;;19.70;99.90;;;;;;5049214;28;20041;-64
2022/02/02 21:20:52;;;;;;;0.85;0.80;;;19.60;99.90;;;;;;5069404;28;20497;-64
2022/02/02 21:28:35;;;;;;;0.85;0.85;;;19.60;99.90;;;;;;5040923;28;20061;-61
2022/02/02 21:31:05;;;;;;;0.95;0.82;;;19.60;99.90;;;;;;5049351;28;20492;-62
2022/02/02 21:33:38;;;;;;;0.50;0.50;;;19.60;99.90;;;;;;5047750;28;20041;-63
2022/02/02 21:36:11;;;;;;;0.30;0.30;;;19.60;99.90;;;;;;5038666;28;20154;-59
2022/02/02 21:38:54;;;;;;;1.27;1.15;;;19.60;99.90;;;;;;5034096;28;20355;-60
2022/02/02 21:41:29;;;;;;;1.55;1.10;;;19.60;99.90;;;;;;5039895;28;20053;-60
2022/02/02 21:43:56;;;;;;;0.70;0.70;;;19.50;99.90;;;;;;5042974;28;20049;-62
2022/02/02 21:46:25;;;;;;;1.55;0.82;;;19.50;99.90;;;;;;5042366;28;20060;-61
2022/02/02 21:48:54;;;;;;;0.50;0.50;;;19.50;99.90;;;;;;5043629;28;20055;-63
2022/02/02 21:51:29;;;;;;;0.45;0.45;;;19.60;99.90;;;;;;5048445;28;20200;-61
2022/02/02 21:53:56;;;;;;;2.50;0.85;;;19.50;99.90;;;;;;5041254;28;20044;-61
2022/02/02 21:56:24;;;;;;;0.52;0.52;;;19.50;99.90;;;;;;5063686;28;20048;-62
2022/02/02 21:58:51;;;;;;;0.60;0.60;;;19.50;99.90;;;;;;5053759;28;20420;-62
2022/02/02 22:01:19;;;;;;;0.82;0.70;;;19.50;99.90;;;;;;5061721;28;20052;-64
2022/02/02 22:03:47;;;;;;;0.98;0.93;;;19.50;99.90;;;;;;5049288;28;20053;-62
2022/02/02 22:06:14;;;;;;;1.60;1.35;;;19.50;99.90;;;;;;5061276;28;20045;-61
2022/02/02 22:08:42;;;;;;;1.17;1.08;;;19.50;99.90;;;;;;5070087;28;20048;-64
2022/02/02 22:11:10;;;;;;;0.95;0.75;;;19.40;99.90;;;;;;5062933;28;20040;-60
2022/02/02 22:13:44;;;;;;;0.65;0.50;;;19.40;99.90;;;;;;5058152;28;20053;-59
2022/02/02 22:16:16;;;;;;;0.80;0.80;;;19.40;99.90;;;;;;5058948;28;20045;-61
2022/02/02 22:18:45;;;;;;;6.57;1.10;;;19.40;99.90;;;;;;5047735;28;20420;-61
2022/02/02 22:21:13;;;;;;;0.60;0.60;;;19.40;99.90;;;;;;5052970;28;20056;-63
2022/02/02 22:23:42;;;;;;;9.90;2.95;;;19.40;99.90;;;;;;5066234;28;20471;-61
2022/02/02 22:26:12;;;;;;;2.42;2.05;;;19.40;99.90;;;;;;5060886;28;20536;-64
2022/02/02 22:28:40;;;;;;;0.63;0.57;;;19.40;99.90;;;;;;5066780;28;20332;-62
2022/02/02 22:31:08;;;;;;;0.35;0.35;;;19.30;99.90;;;;;;5056314;28;20052;-62
2022/02/02 22:33:35;;;;;;;;;;;19.40;99.90;;;;;;5057766;28;20037;-62
2022/02/02 22:36:03;;;;;;;3.53;1.45;;;19.40;99.90;;;;;;5060576;28;19928;-62
2022/02/02 22:38:31;;;;;;;0.47;0.47;;;19.40;99.90;;;;;;5071090;28;20399;-62
2022/02/02 22:40:59;;;;;;;0.50;0.50;;;19.30;99.90;;;;;;5055850;28;20040;-61
2022/02/02 22:43:31;;;;;;;0.77;0.77;;;19.30;99.90;;;;;;5049136;28;20053;-61
2022/02/02 22:46:00;;;;;;;0.95;0.95;;;19.30;99.90;;;;;;5066410;28;20041;-62
2022/02/02 22:48:31;;;;;;;0.30;0.30;;;19.30;99.90;;;;;;5061344;28;20131;-62
2022/02/02 22:50:59;;;;;;;0.70;0.70;;;19.30;99.90;;;;;;5054011;28;20487;-62
2022/02/02 22:53:26;;;;;;;0.30;0.30;;;19.30;99.90;;;;;;5057463;28;20056;-63
2022/02/02 22:55:54;;;;;;;0.63;0.63;;;19.30;99.90;;;;;;5054430;28;20049;-62
2022/02/02 22:58:21;;;;;;;2.10;1.23;;;19.30;99.90;;;;;;5053344;28;20570;-62
2022/02/02 23:00:49;;;;;;;0.35;0.35;;;19.30;99.90;;;;;;5058441;28;20075;-61
2022/02/02 23:03:20;;;;;;;2.75;1.60;;;19.30;99.90;;;;;;5069811;28;20048;-62
2022/02/02 23:05:54;;;;;;;1.10;0.73;;;19.30;99.90;;;;;;5061818;28;20049;-62
2022/02/02 23:08:25;;;;;;;0.40;0.40;;;19.30;99.90;;;;;;5067434;28;20059;-63
2022/02/02 23:10:53;;;;;;;13.50;2.40;;;19.30;99.90;;;;;;5054026;28;20067;-61
2022/02/02 23:13:20;;;;;;;4.50;1.80;;;19.30;99.90;;;;;;5055765;28;20041;-63
2022/02/02 23:15:57;;;;;;;;;;;19.30;99.90;;;;;;5051766;28;20048;-62
2022/02/02 23:18:30;;;;;;;0.93;0.85;;;19.30;99.90;;;;;;5063455;28;19932;-62
2022/02/02 23:21:02;;;;;;;0.40;0.40;;;19.30;99.90;;;;;;5050013;28;20060;-63
2022/02/02 23:23:37;;;;;;;0.40;0.40;;;19.30;99.90;;;;;;5064972;28;20265;-59
2022/02/02 23:26:05;;;;;;;2.28;1.05;;;19.30;99.90;;;;;;5056206;28;20622;-61
2022/02/02 23:28:38;;;;;;;0.40;0.40;;;19.30;99.90;;;;;;5063469;28;20530;-62
2022/02/02 23:31:09;;;;;;;1.70;1.35;;;19.30;99.90;;;;;;5057482;28;20140;-62
2022/02/02 23:37:50;;;;;;;1.65;1.50;;;19.20;99.90;;;;;;5069858;28;20040;-62
2022/02/02 23:40:17;;;;;;;;;;;19.30;99.90;;;;;;5050307;28;20382;-61
2022/02/02 23:42:46;;;;;;;0.40;0.40;;;19.20;99.90;;;;;;5058872;28;19924;-62
2022/02/02 23:45:14;;;;;;;1.00;0.90;;;19.20;99.90;;;;;;5059018;28;20040;-62
2022/02/02 23:47:53;;;;;;;0.55;0.55;;;19.20;99.90;;;;;;5062800;28;20048;-63
2022/02/02 23:50:21;;;;;;;2.10;0.93;;;19.30;99.90;;;;;;5064762;28;20052;-61
2022/02/02 23:52:54;;;;;;;0.57;0.57;;;19.30;99.90;;;;;;5064161;28;20052;-61
2022/02/02 23:55:36;;;;;;;0.50;0.50;;;19.20;99.90;;;;;;5067311;28;20060;-59
2022/02/02 23:58:21;;;;;;;1.10;1.05;;;19.20;99.90;;;;;;5063614;28;20055;-60
